createdAt,value
2019-05-01T00:01:15.754Z,48.47
2019-05-01T00:04:05.193Z,49.03
2019-05-01T00:06:45.035Z,48.87
2019-05-01T00:09:16.993Z,50.47
2019-05-01T00:11:49.674Z,50.57
2019-05-01T00:14:22.713Z,50.03
2019-05-01T00:16:55.149Z,49.40
2019-05-01T00:19:26.883Z,48.13
2019-05-01T00:21:59.025Z,50.73
2019-05-01T00:24:32.218Z,50.50
2019-05-01T00:27:20.438Z,51.20
2019-05-01T00:29:59.617Z,51.80
2019-05-01T00:32:29.870Z,49.33
2019-05-01T00:35:01.778Z,52.17
2019-05-01T00:37:32.522Z,52.40
2019-05-01T00:40:03.638Z,52.73
2019-05-01T00:42:34.308Z,48.20
2019-05-01T00:45:08.260Z,50.47
2019-05-01T00:47:40.125Z,49.90
2019-05-01T00:50:11.589Z,51.50
2019-05-01T00:52:42.814Z,54.50
2019-05-01T00:55:33.373Z,55.17
2019-05-01T00:58:17.020Z,51.53
2019-05-01T01:00:57.458Z,55.50
2019-05-01T01:03:29.377Z,58.67
2019-05-01T01:06:00.293Z,55.47
2019-05-01T01:08:35.299Z,59.90
2019-05-01T01:11:07.834Z,55.73
2019-05-01T01:13:38.023Z,54.70
2019-05-01T01:16:11.967Z,53.40
2019-05-01T01:18:43.499Z,58.43
2019-05-01T01:21:14.435Z,57.67
2019-05-01T01:23:47.613Z,53.17
2019-05-01T01:26:18.561Z,55.60
2019-05-01T01:28:50.604Z,58.10
2019-05-01T01:31:22.919Z,60.07
2019-05-01T01:33:53.198Z,63.97
2019-05-01T01:36:23.391Z,58.67
2019-05-01T01:38:53.957Z,61.50
2019-05-01T01:41:25.143Z,56.87
2019-05-01T01:44:23.470Z,58.63
2019-05-01T01:46:57.071Z,57.93
2019-05-01T01:49:27.826Z,64.27
2019-05-01T01:52:00.639Z,62.70
2019-05-01T01:54:33.616Z,63.73
2019-05-01T01:57:05.874Z,66.50
2019-05-01T01:59:37.605Z,60.83
2019-05-01T02:02:17.771Z,63.20
2019-05-01T02:05:24.913Z,60.33
2019-05-01T02:07:58.269Z,60.43
2019-05-01T02:10:42.264Z,65.47
2019-05-01T02:13:03.835Z,61.67
2019-05-01T02:15:35.108Z,62.93
2019-05-01T02:18:05.886Z,61.70
2019-05-01T02:20:39.972Z,66.03
2019-05-01T02:23:11.792Z,64.53
2019-05-01T02:25:46.814Z,61.17
2019-05-01T02:28:29.027Z,65.03
2019-05-01T02:31:29.304Z,64.47
2019-05-01T02:34:02.541Z,63.47
2019-05-01T02:36:37.448Z,65.83
2019-05-01T02:39:12.837Z,62.67
2019-05-01T02:41:46.138Z,64.47
2019-05-01T02:44:21.612Z,65.90
2019-05-01T02:46:55.172Z,67.60
2019-05-01T02:49:39.113Z,64.40
2019-05-01T02:52:12.862Z,62.63
2019-05-01T02:54:47.851Z,69.73
2019-05-01T02:57:25.054Z,63.57
2019-05-01T02:59:59.258Z,66.13
2019-05-01T03:02:35.395Z,66.63
2019-05-01T03:05:08.614Z,63.97
2019-05-01T03:07:46.268Z,68.03
2019-05-01T03:10:19.115Z,64.97
2019-05-01T03:12:52.987Z,65.77
2019-05-01T03:15:28.434Z,66.23
2019-05-01T03:18:26.546Z,67.33
2019-05-01T03:21:22.438Z,70.80
2019-05-01T03:23:58.337Z,69.57
2019-05-01T03:26:31.182Z,67.17
2019-05-01T03:29:02.773Z,68.00
2019-05-01T03:31:33.613Z,71.87
2019-05-01T03:34:08.883Z,69.37
2019-05-01T03:36:41.295Z,69.30
2019-05-01T03:39:12.074Z,68.47
2019-05-01T03:41:44.421Z,69.93
2019-05-01T03:44:17.975Z,69.20
2019-05-01T03:46:51.829Z,69.60
2019-05-01T03:49:23.314Z,67.60
2019-05-01T03:51:54.170Z,72.33
2019-05-01T03:54:35.372Z,77.03
2019-05-01T03:57:06.116Z,67.40
2019-05-01T03:59:47.231Z,69.03
2019-05-01T04:02:34.168Z,73.70
2019-05-01T04:05:06.762Z,69.60
2019-05-01T04:07:39.065Z,73.90
2019-05-01T04:10:11.960Z,71.77
2019-05-01T04:12:45.347Z,75.00
2019-05-01T04:15:16.286Z,75.90
2019-05-01T04:17:55.411Z,70.40
2019-05-01T04:20:28.000Z,73.30
2019-05-01T04:23:00.578Z,80.03
2019-05-01T04:25:31.997Z,80.83
2019-05-01T04:28:22.831Z,85.13
2019-05-01T04:31:14.894Z,98.93
2019-05-01T04:33:56.659Z,110.67
2019-05-01T04:36:35.952Z,117.43
2019-05-01T04:39:12.103Z,137.73
2019-05-01T04:41:45.802Z,137.60
2019-05-01T04:44:17.554Z,122.23
2019-05-01T04:46:49.259Z,128.30
2019-05-01T04:49:21.374Z,130.90
2019-05-01T04:51:52.537Z,138.73
2019-05-01T04:54:23.596Z,134.47
2019-05-01T04:56:56.408Z,136.97
2019-05-01T04:59:28.105Z,127.00
2019-05-01T05:02:04.508Z,112.40
2019-05-01T05:04:36.583Z,106.83
2019-05-01T05:07:06.763Z,125.07
2019-05-01T05:09:47.728Z,139.03
2019-05-01T05:12:31.687Z,127.27
2019-05-01T05:15:19.674Z,133.57
2019-05-01T05:17:51.301Z,136.77
2019-05-01T05:20:23.092Z,123.63
2019-05-01T05:22:55.860Z,122.17
2019-05-01T05:25:27.818Z,126.23
2019-05-01T05:28:00.440Z,124.07
2019-05-01T05:30:38.898Z,126.73
2019-05-01T05:33:18.641Z,134.53
2019-05-01T05:35:51.430Z,119.40
2019-05-01T05:38:44.202Z,123.13
2019-05-01T05:41:16.392Z,131.53
2019-05-01T05:43:48.476Z,141.53
2019-05-01T05:46:20.624Z,146.57
2019-05-01T05:48:52.436Z,145.60
2019-05-01T05:51:44.234Z,146.00
2019-05-01T05:54:43.392Z,145.67
2019-05-01T05:57:30.008Z,140.87
2019-05-01T06:00:26.538Z,139.80
2019-05-01T06:03:32.451Z,137.83
2019-05-01T06:06:53.114Z,135.23
2019-05-01T06:09:34.440Z,134.07
2019-05-01T06:12:25.941Z,137.83
2019-05-01T06:15:09.789Z,143.67
2019-05-01T06:17:46.650Z,141.00
2019-05-01T06:20:41.637Z,128.97
2019-05-01T06:23:45.000Z,132.17
2019-05-01T06:26:37.416Z,141.30
2019-05-01T06:29:07.416Z,146.83
2019-05-01T06:31:39.792Z,148.27
2019-05-01T06:34:10.241Z,144.50
2019-05-01T06:36:49.648Z,167.73
2019-05-01T06:39:26.826Z,150.00
2019-05-01T06:42:00.548Z,151.03
2019-05-01T06:44:44.314Z,184.10
2019-05-01T06:47:43.144Z,178.47
2019-05-01T06:50:27.285Z,177.53
2019-05-01T06:52:59.993Z,183.50
2019-05-01T06:55:34.248Z,175.30
2019-05-01T06:58:04.989Z,164.67
2019-05-01T07:00:39.191Z,166.13
2019-05-01T07:03:10.459Z,171.23
2019-05-01T07:05:44.645Z,158.63
2019-05-01T07:08:24.327Z,165.00
2019-05-01T07:10:48.488Z,150.60
2019-05-01T07:13:19.460Z,142.13
2019-05-01T07:15:51.705Z,154.87
2019-05-01T07:18:24.103Z,160.10
2019-05-01T07:20:55.837Z,158.30
2019-05-01T07:23:27.418Z,176.17
2019-05-01T07:25:58.448Z,166.50
2019-05-01T07:28:34.378Z,169.93
2019-05-01T07:31:08.049Z,173.77
2019-05-01T07:33:40.216Z,169.63
2019-05-01T07:36:16.540Z,173.90
2019-05-01T07:38:52.150Z,169.90
2019-05-01T07:41:23.737Z,176.10
2019-05-01T07:44:21.120Z,166.80
2019-05-01T07:47:16.990Z,168.47
2019-05-01T07:50:00.449Z,173.87
2019-05-01T07:52:31.181Z,166.00
2019-05-01T07:55:02.874Z,152.17
2019-05-01T07:57:39.259Z,149.90
2019-05-01T08:00:12.793Z,155.87
2019-05-01T08:02:45.289Z,151.10
2019-05-01T08:05:21.948Z,155.17
2019-05-01T08:07:54.807Z,140.83
2019-05-01T08:10:30.647Z,145.80
2019-05-01T08:13:00.511Z,139.80
2019-05-01T08:15:32.672Z,149.63
2019-05-01T08:18:24.104Z,142.07
2019-05-01T08:21:11.757Z,140.27
2019-05-01T08:23:47.187Z,137.50
2019-05-01T08:26:17.899Z,138.33
2019-05-01T08:29:08.151Z,142.03
2019-05-01T08:31:51.016Z,147.63
2019-05-01T08:34:25.348Z,150.97
2019-05-01T08:36:59.657Z,148.30
2019-05-01T08:39:30.825Z,154.30
2019-05-01T08:42:07.030Z,165.83
2019-05-01T08:44:44.739Z,157.77
2019-05-01T08:47:27.858Z,153.73
2019-05-01T08:50:15.352Z,180.60
2019-05-01T08:52:48.760Z,192.23
2019-05-01T08:55:20.146Z,190.43
2019-05-01T08:57:54.998Z,173.87
2019-05-01T09:00:26.385Z,170.23
2019-05-01T09:03:07.895Z,159.67
2019-05-01T09:05:33.634Z,177.07
2019-05-01T09:08:01.828Z,185.10
2019-05-01T09:10:32.976Z,181.43
2019-05-01T09:13:05.298Z,194.90
2019-05-01T09:15:35.845Z,177.07
2019-05-01T09:18:06.889Z,185.93
2019-05-01T09:20:39.670Z,180.53
2019-05-01T09:23:14.381Z,173.63
2019-05-01T09:26:14.751Z,169.50
2019-05-01T09:28:47.787Z,155.00
2019-05-01T09:31:21.236Z,163.93
2019-05-01T09:33:52.530Z,154.97
2019-05-01T09:36:24.361Z,152.87
2019-05-01T09:38:56.589Z,162.40
2019-05-01T09:41:38.058Z,158.27
2019-05-01T09:44:01.471Z,163.97
2019-05-01T09:46:34.681Z,157.97
2019-05-01T09:49:05.635Z,165.00
2019-05-01T09:51:55.911Z,164.77
2019-05-01T09:54:46.695Z,182.83
2019-05-01T09:57:17.985Z,174.43
2019-05-01T09:59:49.825Z,169.27
2019-05-01T10:02:22.407Z,172.80
2019-05-01T10:04:54.990Z,161.90
2019-05-01T10:07:28.881Z,169.17
2019-05-01T10:09:59.733Z,162.80
2019-05-01T10:12:31.561Z,173.10
2019-05-01T10:15:05.356Z,169.73
2019-05-01T10:17:36.092Z,172.17
2019-05-01T10:20:07.552Z,178.10
2019-05-01T10:22:41.135Z,170.57
2019-05-01T10:25:24.200Z,169.97
2019-05-01T10:28:07.240Z,174.43
2019-05-01T10:30:50.860Z,165.77
2019-05-01T10:33:28.974Z,161.97
2019-05-01T10:36:18.716Z,166.53
2019-05-01T10:38:51.063Z,165.87
2019-05-01T10:41:25.259Z,174.57
2019-05-01T10:43:59.952Z,181.80
2019-05-01T10:46:32.770Z,169.97
2019-05-01T10:49:06.441Z,164.23
2019-05-01T10:51:37.401Z,169.13
2019-05-01T10:54:08.972Z,163.20
2019-05-01T10:56:45.201Z,167.07
2019-05-01T10:59:16.805Z,166.57
2019-05-01T11:01:56.653Z,171.83
2019-05-01T11:04:29.765Z,161.10
2019-05-01T11:07:01.144Z,164.53
2019-05-01T11:09:32.166Z,162.20
2019-05-01T11:12:03.277Z,160.37
2019-05-01T11:14:34.076Z,152.67
2019-05-01T11:17:04.934Z,162.37
2019-05-01T11:19:39.925Z,155.53
2019-05-01T11:22:10.297Z,165.57
2019-05-01T11:24:44.011Z,159.37
2019-05-01T11:27:15.474Z,160.23
2019-05-01T11:29:47.416Z,160.80
2019-05-01T11:32:30.877Z,160.07
2019-05-01T11:35:21.233Z,168.20
2019-05-01T11:38:03.004Z,155.40
2019-05-01T11:40:37.691Z,166.10
2019-05-01T11:43:08.520Z,162.77
2019-05-01T11:45:40.058Z,165.90
2019-05-01T11:48:11.689Z,157.30
2019-05-01T11:50:47.216Z,156.67
2019-05-01T11:53:19.287Z,170.50
2019-05-01T11:55:55.351Z,154.03
2019-05-01T11:58:27.766Z,165.87
2019-05-01T12:01:00.959Z,157.40
2019-05-01T12:03:32.123Z,154.87
2019-05-01T12:06:04.133Z,154.57
2019-05-01T12:08:34.766Z,155.77
2019-05-01T12:11:09.515Z,171.20
2019-05-01T12:13:43.987Z,171.13
2019-05-01T12:16:24.038Z,165.67
2019-05-01T12:18:55.214Z,165.83
2019-05-01T12:21:31.079Z,158.77
2019-05-01T12:24:01.270Z,166.77
2019-05-01T12:26:33.406Z,161.87
2019-05-01T12:29:06.191Z,158.13
2019-05-01T12:31:37.328Z,146.93
2019-05-01T12:34:09.543Z,155.53
2019-05-01T12:36:44.595Z,168.07
2019-05-01T12:39:17.204Z,152.33
2019-05-01T12:41:56.202Z,156.50
2019-05-01T12:44:27.189Z,152.87
2019-05-01T12:47:08.467Z,157.37
2019-05-01T12:49:40.744Z,153.37
2019-05-01T12:52:19.336Z,145.27
2019-05-01T12:54:59.988Z,147.53
2019-05-01T12:57:30.676Z,148.00
2019-05-01T13:00:08.976Z,148.90
2019-05-01T13:02:38.018Z,152.83
2019-05-01T13:05:25.527Z,147.00
2019-05-01T13:07:58.857Z,149.53
2019-05-01T13:10:32.047Z,145.77
2019-05-01T13:13:05.699Z,145.90
2019-05-01T13:15:35.881Z,149.83
2019-05-01T13:18:06.719Z,137.95
2019-05-01T13:20:37.736Z,143.63
2019-05-01T13:23:09.595Z,148.43
2019-05-01T13:25:39.791Z,137.52
2019-05-01T13:28:38.655Z,145.80
2019-05-01T13:31:21.342Z,141.60
2019-05-01T13:33:52.525Z,148.68
2019-05-01T13:36:23.059Z,138.22
2019-05-01T13:38:54.115Z,139.45
2019-05-01T13:41:24.763Z,137.00
2019-05-01T13:43:55.052Z,131.67
2019-05-01T13:46:25.257Z,138.75
2019-05-01T13:48:55.456Z,117.35
2019-05-01T13:51:27.459Z,122.60
2019-05-01T13:53:58.010Z,118.00
2019-05-01T13:56:28.623Z,118.05
2019-05-01T13:59:05.380Z,110.20
2019-05-01T14:01:37.825Z,117.13
2019-05-01T14:04:10.364Z,111.57
2019-05-01T14:06:44.548Z,106.90
2019-05-01T14:09:22.879Z,103.95
2019-05-01T14:11:53.391Z,103.10
2019-05-01T14:14:25.533Z,96.00
2019-05-01T14:16:56.062Z,93.22
2019-05-01T14:19:28.635Z,87.60
2019-05-01T14:22:24.236Z,89.07
2019-05-01T14:24:57.980Z,86.97
2019-05-01T14:27:31.543Z,80.67
2019-05-01T14:30:04.488Z,76.82
2019-05-01T14:32:36.189Z,71.72
2019-05-01T14:35:09.509Z,77.45
2019-05-01T14:37:41.593Z,70.50
2019-05-01T14:40:12.768Z,108.27
2019-05-01T14:42:45.159Z,60.10
2019-05-01T14:45:19.025Z,62.73
2019-05-01T14:47:50.365Z,49.20
2019-05-01T14:50:23.040Z,57.08
2019-05-01T14:52:54.919Z,65.65
2019-05-01T14:55:27.172Z,52.03
2019-05-01T14:57:59.262Z,55.40
2019-05-01T15:00:30.212Z,55.50
2019-05-01T15:03:02.734Z,51.28
2019-05-01T15:05:38.405Z,76.30
2019-05-01T15:08:09.205Z,61.98
2019-05-01T15:10:41.993Z,54.93
2019-05-01T15:13:26.720Z,52.55
2019-05-01T15:16:23.192Z,56.10
2019-05-01T15:19:12.319Z,49.48
2019-05-01T15:21:44.480Z,52.35
2019-05-01T15:24:15.995Z,47.70
2019-05-01T15:26:47.467Z,51.98
2019-05-01T15:29:20.157Z,53.60
2019-05-01T15:31:53.527Z,60.80
2019-05-01T15:34:24.525Z,57.17
2019-05-01T15:36:57.313Z,64.25
2019-05-01T15:39:36.220Z,58.45
2019-05-01T15:42:28.218Z,59.45
2019-05-01T15:45:01.086Z,59.45
2019-05-01T15:47:34.252Z,66.55
2019-05-01T15:50:05.682Z,62.07
2019-05-01T15:52:36.669Z,65.97
2019-05-01T15:55:07.716Z,69.60
2019-05-01T15:57:38.034Z,67.67
2019-05-01T16:00:12.187Z,79.00
2019-05-01T16:02:45.333Z,63.93
2019-05-01T16:05:18.032Z,66.93
2019-05-01T16:07:49.380Z,67.83
2019-05-01T16:10:24.345Z,66.13
2019-05-01T16:13:00.607Z,66.33
2019-05-01T16:15:34.944Z,69.30
2019-05-01T16:18:06.452Z,66.30
2019-05-01T16:20:40.790Z,70.40
2019-05-01T16:23:13.676Z,62.67
2019-05-01T16:25:45.841Z,63.53
2019-05-01T16:28:19.386Z,68.13
2019-05-01T16:30:50.491Z,67.40
2019-05-01T16:33:23.227Z,67.50
2019-05-01T16:35:53.852Z,63.63
2019-05-01T16:38:34.578Z,70.93
2019-05-01T16:41:08.523Z,64.67
2019-05-01T16:43:40.470Z,65.47
2019-05-01T16:46:11.138Z,67.70
2019-05-01T16:48:43.378Z,70.00
2019-05-01T16:51:14.413Z,67.67
2019-05-01T16:53:45.045Z,59.90
2019-05-01T16:56:15.284Z,61.97
2019-05-01T16:58:45.800Z,66.27
2019-05-01T17:01:31.272Z,64.87
2019-05-01T17:04:06.628Z,63.67
2019-05-01T17:06:57.824Z,67.77
2019-05-01T17:09:46.501Z,62.10
2019-05-01T17:12:21.979Z,62.90
2019-05-01T17:14:53.993Z,68.47
2019-05-01T17:17:25.465Z,66.20
2019-05-01T17:19:56.716Z,64.43
2019-05-01T17:22:31.009Z,61.37
2019-05-01T17:25:03.417Z,61.53
2019-05-01T17:27:35.806Z,61.83
2019-05-01T17:30:15.149Z,62.40
2019-05-01T17:32:48.430Z,62.23
2019-05-01T17:35:21.122Z,66.93
2019-05-01T17:37:52.632Z,69.43
2019-05-01T17:40:24.421Z,64.17
2019-05-01T17:42:55.024Z,69.47
2019-05-01T17:45:29.977Z,68.70
2019-05-01T17:48:01.802Z,64.17
2019-05-01T17:50:34.712Z,72.97
2019-05-01T17:53:06.493Z,69.50
2019-05-01T17:55:37.833Z,67.30
2019-05-01T17:58:11.187Z,67.43
2019-05-01T18:00:59.775Z,71.03
2019-05-01T18:03:55.819Z,69.33
2019-05-01T18:06:31.270Z,68.63
2019-05-01T18:09:08.228Z,71.37
2019-05-01T18:11:37.242Z,73.40
2019-05-01T18:14:07.969Z,67.03
2019-05-01T18:16:40.513Z,69.10
2019-05-01T18:19:11.977Z,72.60
2019-05-01T18:21:51.249Z,72.40
2019-05-01T18:24:58.429Z,70.83
2019-05-01T18:27:49.805Z,72.07
2019-05-01T18:30:21.947Z,75.50
2019-05-01T18:32:53.530Z,77.40
2019-05-01T18:35:30.982Z,75.00
2019-05-01T18:38:20.644Z,74.90
2019-05-01T18:40:58.101Z,70.17
2019-05-01T18:43:32.085Z,76.07
2019-05-01T18:46:02.127Z,72.27
2019-05-01T18:48:33.124Z,70.63
2019-05-01T18:51:03.878Z,78.63
2019-05-01T18:53:34.867Z,75.67
2019-05-01T18:56:09.641Z,78.97
2019-05-01T18:58:41.615Z,79.07
2019-05-01T19:01:15.528Z,71.60
2019-05-01T19:03:47.906Z,75.37
2019-05-01T19:06:20.100Z,77.93
2019-05-01T19:08:51.446Z,73.47
2019-05-01T19:11:26.013Z,78.87
2019-05-01T19:14:00.767Z,79.03
2019-05-01T19:16:31.138Z,76.20
2019-05-01T19:19:04.491Z,74.63
2019-05-01T19:21:36.079Z,80.87
2019-05-01T19:24:06.693Z,84.30
2019-05-01T19:26:46.671Z,85.23
2019-05-01T19:29:26.892Z,76.27
2019-05-01T19:31:59.234Z,75.80
2019-05-01T19:34:32.144Z,79.17
2019-05-01T19:37:04.602Z,80.47
2019-05-01T19:39:43.418Z,82.23
2019-05-01T19:42:08.939Z,80.00
2019-05-01T19:44:40.984Z,76.23
2019-05-01T19:47:11.342Z,78.37
2019-05-01T19:50:07.482Z,81.03
2019-05-01T19:52:39.913Z,79.73
2019-05-01T19:55:11.182Z,79.90
2019-05-01T19:57:41.810Z,80.10
2019-05-01T20:00:13.475Z,80.47
2019-05-01T20:02:46.678Z,83.23
2019-05-01T20:05:21.986Z,84.37
2019-05-01T20:07:51.142Z,84.10
2019-05-01T20:10:23.994Z,80.37
2019-05-01T20:12:55.416Z,81.87
2019-05-01T20:15:26.629Z,82.53
2019-05-01T20:17:58.411Z,82.37
2019-05-01T20:20:29.144Z,82.73
2019-05-01T20:23:06.483Z,77.40
2019-05-01T20:25:38.714Z,84.63
2019-05-01T20:28:10.695Z,83.57
2019-05-01T20:30:41.591Z,90.10
2019-05-01T20:33:12.539Z,86.63
2019-05-01T20:35:46.490Z,87.63
2019-05-01T20:38:17.181Z,83.37
2019-05-01T20:40:47.790Z,82.10
2019-05-01T20:43:20.599Z,84.90
2019-05-01T20:45:53.098Z,86.03
2019-05-01T20:48:25.193Z,82.50
2019-05-01T20:50:57.067Z,84.60
2019-05-01T20:53:28.376Z,83.57
2019-05-01T20:56:05.807Z,88.20
2019-05-01T20:58:36.813Z,85.73
2019-05-01T21:01:08.529Z,85.33
2019-05-01T21:03:41.739Z,86.67
2019-05-01T21:06:21.559Z,94.10
2019-05-01T21:09:13.882Z,87.97
2019-05-01T21:12:04.193Z,88.73
2019-05-01T21:14:25.093Z,86.77
2019-05-01T21:16:57.423Z,88.83
2019-05-01T21:19:32.509Z,91.27
2019-05-01T21:22:07.677Z,87.27
2019-05-01T21:24:39.792Z,88.90
2019-05-01T21:27:10.680Z,91.53
2019-05-01T21:29:40.928Z,88.20
2019-05-01T21:32:17.943Z,92.90
2019-05-01T21:34:46.626Z,87.97
2019-05-01T21:37:19.046Z,94.73
2019-05-01T21:39:50.451Z,92.90
2019-05-01T21:42:21.554Z,92.57
2019-05-01T21:45:07.721Z,95.53
2019-05-01T21:47:42.540Z,96.03
2019-05-01T21:50:17.849Z,96.33
2019-05-01T21:52:48.502Z,95.57
2019-05-01T21:55:20.540Z,98.53
2019-05-01T21:57:55.121Z,95.73
2019-05-01T22:00:29.222Z,99.50
2019-05-01T22:03:03.071Z,95.07
2019-05-01T22:05:39.351Z,94.67
2019-05-01T22:08:09.435Z,91.97
2019-05-01T22:10:51.770Z,96.13
2019-05-01T22:13:20.416Z,98.47
2019-05-01T22:15:56.032Z,97.67
2019-05-01T22:18:37.300Z,101.20
2019-05-01T22:21:13.393Z,99.37
2019-05-01T22:24:04.193Z,105.10
2019-05-01T22:26:39.571Z,102.73
2019-05-01T22:29:13.368Z,104.17
2019-05-01T22:31:57.448Z,99.63
2019-05-01T22:34:38.634Z,105.37
2019-05-01T22:37:09.756Z,101.93
2019-05-01T22:39:43.307Z,101.17
2019-05-01T22:42:13.485Z,111.63
2019-05-01T22:44:44.470Z,101.70
2019-05-01T22:47:16.371Z,103.63
2019-05-01T22:49:51.024Z,112.70
2019-05-01T22:52:21.633Z,107.43
2019-05-01T22:54:52.556Z,106.50
2019-05-01T22:57:24.966Z,104.93
2019-05-01T22:59:57.078Z,110.10
2019-05-01T23:02:39.253Z,108.13
2019-05-01T23:05:11.900Z,114.50
2019-05-01T23:07:43.249Z,116.13
2019-05-01T23:10:13.863Z,115.77
2019-05-01T23:12:44.990Z,116.70
2019-05-01T23:15:21.433Z,121.03
2019-05-01T23:17:53.325Z,122.23
2019-05-01T23:20:29.577Z,121.17
2019-05-01T23:23:00.074Z,115.53
2019-05-01T23:25:36.584Z,118.77
2019-05-01T23:28:06.027Z,114.40
2019-05-01T23:30:37.036Z,116.90
2019-05-01T23:33:07.362Z,117.90
2019-05-01T23:35:41.757Z,119.80
2019-05-01T23:38:16.236Z,119.83
2019-05-01T23:40:50.975Z,119.63
2019-05-01T23:43:23.083Z,127.17
2019-05-01T23:45:57.116Z,118.33
2019-05-01T23:48:29.609Z,121.20
2019-05-01T23:51:02.614Z,120.20
2019-05-01T23:53:33.462Z,123.43
2019-05-01T23:56:06.715Z,121.97
2019-05-01T23:58:38.698Z,122.87
